aviador You're here:

KDHN Decoded Metar

DOTHAN in AL, USA
Report Time2017-09-24 22:53:00
UTC Time2017-09-24 23:04:54
Flight Rules vfr VFR
Wind030° at 04 kt
W.Decomp.*RWY 36: 3.4 kt HW 2.2 kt RCW
RWY 32: 1.2 kt HW 3.8 kt RCW
W.Rank030° ranks 22
Current wind is below 030° avg. (5.6)
Visibility9999 m
Phenomena:N/A
Clouds:N/A
Expected CloudBase > 1,600 ft AGL from Temp-Dew spread
CeilingNone
Temp26°C (ISA +12)
Dew Point22°C (79% RH)
QNH1015 hPa
Density Alt2,008 ft
Elevation371 ft
Report Wrong Elevation
Raw Report
METAR KDHN 242253Z 03004KT 10SM CLR 26/22 A2996 RMK AO2 SLP141 T02610217=

Extra information for KDHN:More info

Metar Taf Metar & Taf Last 4 Metars F.Rules Stats Wind Profile Meteogram Temp Stats Airport Information Weather charts Add Link Nearby VenuesMetar ALERT Operation Metar Decoded Social comments

AIRNAV info for KDHN